sensor_id;sensor_type;location;lat;lon;timestamp;P1;durP1;ratioP1;P2;durP2;ratioP2
65552;SDS011;52465;51.560;14.368;2023-04-16T00:00:06;6.03;;;5.70;;
65552;SDS011;52465;51.560;14.368;2023-04-16T00:02:32;6.80;;;6.35;;
65552;SDS011;52465;51.560;14.368;2023-04-16T00:04:58;6.78;;;6.18;;
65552;SDS011;52465;51.560;14.368;2023-04-16T00:07:23;6.65;;;6.22;;
65552;SDS011;52465;51.560;14.368;2023-04-16T00:09:49;6.68;;;6.28;;
65552;SDS011;52465;51.560;14.368;2023-04-16T00:12:15;6.85;;;6.28;;
65552;SDS011;52465;51.560;14.368;2023-04-16T00:14:40;6.22;;;5.82;;
65552;SDS011;52465;51.560;14.368;2023-04-16T00:17:08;6.75;;;6.25;;
65552;SDS011;52465;51.560;14.368;2023-04-16T00:19:37;6.55;;;6.15;;
65552;SDS011;52465;51.560;14.368;2023-04-16T00:29:07;6.30;;;5.90;;
65552;SDS011;52465;51.560;14.368;2023-04-16T00:31:35;6.10;;;5.60;;
65552;SDS011;52465;51.560;14.368;2023-04-16T00:34:01;6.43;;;6.00;;
65552;SDS011;52465;51.560;14.368;2023-04-16T00:36:27;6.18;;;5.78;;
65552;SDS011;52465;51.560;14.368;2023-04-16T00:38:52;6.40;;;6.00;;
65552;SDS011;52465;51.560;14.368;2023-04-16T00:41:19;6.40;;;6.00;;
65552;SDS011;52465;51.560;14.368;2023-04-16T00:43:44;6.28;;;5.88;;
65552;SDS011;52465;51.560;14.368;2023-04-16T00:46:11;6.55;;;6.07;;
65552;SDS011;52465;51.560;14.368;2023-04-16T00:48:40;6.50;;;6.05;;
65552;SDS011;52465;51.560;14.368;2023-04-16T00:51:07;6.07;;;5.68;;
65552;SDS011;52465;51.560;14.368;2023-04-16T00:53:33;6.80;;;6.30;;
65552;SDS011;52465;51.560;14.368;2023-04-16T00:56:01;6.35;;;5.95;;
65552;SDS011;52465;51.560;14.368;2023-04-16T00:58:27;6.75;;;6.18;;
65552;SDS011;52465;51.560;14.368;2023-04-16T01:00:56;6.13;;;5.72;;
65552;SDS011;52465;51.560;14.368;2023-04-16T01:03:22;6.35;;;5.95;;
65552;SDS011;52465;51.560;14.368;2023-04-16T01:05:53;6.40;;;6.00;;
65552;SDS011;52465;51.560;14.368;2023-04-16T01:08:20;6.15;;;5.75;;
65552;SDS011;52465;51.560;14.368;2023-04-16T01:10:46;6.72;;;6.25;;
65552;SDS011;52465;51.560;14.368;2023-04-16T01:13:11;6.78;;;6.38;;
65552;SDS011;52465;51.560;14.368;2023-04-16T01:15:37;6.43;;;6.03;;
65552;SDS011;52465;51.560;14.368;2023-04-16T01:18:02;6.68;;;6.25;;
65552;SDS011;52465;51.560;14.368;2023-04-16T01:20:39;6.35;;;5.95;;
65552;SDS011;52465;51.560;14.368;2023-04-16T01:23:06;6.30;;;5.90;;
65552;SDS011;52465;51.560;14.368;2023-04-16T01:25:31;6.95;;;6.35;;
65552;SDS011;52465;51.560;14.368;2023-04-16T01:27:57;6.57;;;6.07;;
65552;SDS011;52465;51.560;14.368;2023-04-16T01:30:23;6.35;;;5.95;;
65552;SDS011;52465;51.560;14.368;2023-04-16T01:40:04;5.75;;;5.35;;
65552;SDS011;52465;51.560;14.368;2023-04-16T01:42:30;6.13;;;5.63;;
65552;SDS011;52465;51.560;14.368;2023-04-16T01:44:56;6.22;;;5.82;;
65552;SDS011;52465;51.560;14.368;2023-04-16T01:47:21;6.57;;;6.00;;
65552;SDS011;52465;51.560;14.368;2023-04-16T01:49:47;6.50;;;6.10;;
65552;SDS011;52465;51.560;14.368;2023-04-16T01:52:12;6.45;;;6.00;;
65552;SDS011;52465;51.560;14.368;2023-04-16T01:54:38;6.45;;;5.95;;
65552;SDS011;52465;51.560;14.368;2023-04-16T01:57:03;6.65;;;6.18;;
65552;SDS011;52465;51.560;14.368;2023-04-16T01:59:28;5.80;;;5.50;;
65552;SDS011;52465;51.560;14.368;2023-04-16T02:01:54;6.70;;;6.20;;
65552;SDS011;52465;51.560;14.368;2023-04-16T02:04:20;6.15;;;5.82;;
65552;SDS011;52465;51.560;14.368;2023-04-16T02:06:46;6.20;;;5.80;;
65552;SDS011;52465;51.560;14.368;2023-04-16T02:09:12;6.20;;;5.80;;
65552;SDS011;52465;51.560;14.368;2023-04-16T02:19:02;6.32;;;5.88;;
65552;SDS011;52465;51.560;14.368;2023-04-16T02:21:28;5.88;;;5.47;;
65552;SDS011;52465;51.560;14.368;2023-04-16T02:24:42;5.80;;;5.40;;
65552;SDS011;52465;51.560;14.368;2023-04-16T02:27:08;6.15;;;5.75;;
65552;SDS011;52465;51.560;14.368;2023-04-16T02:29:34;6.07;;;5.68;;
65552;SDS011;52465;51.560;14.368;2023-04-16T02:31:59;6.65;;;6.25;;
65552;SDS011;52465;51.560;14.368;2023-04-16T02:34:25;5.90;;;5.50;;
65552;SDS011;52465;51.560;14.368;2023-04-16T02:36:50;6.30;;;5.80;;
65552;SDS011;52465;51.560;14.368;2023-04-16T02:46:38;6.18;;;5.78;;
65552;SDS011;52465;51.560;14.368;2023-04-16T02:49:04;5.90;;;5.40;;
65552;SDS011;52465;51.560;14.368;2023-04-16T02:51:29;5.90;;;5.60;;
65552;SDS011;52465;51.560;14.368;2023-04-16T02:53:55;5.68;;;5.28;;
65552;SDS011;52465;51.560;14.368;2023-04-16T02:56:20;5.90;;;5.50;;
65552;SDS011;52465;51.560;14.368;2023-04-16T02:58:48;6.68;;;6.18;;
65552;SDS011;52465;51.560;14.368;2023-04-16T03:03:57;5.75;;;5.45;;
65552;SDS011;52465;51.560;14.368;2023-04-16T03:06:24;5.93;;;5.57;;
65552;SDS011;52465;51.560;14.368;2023-04-16T03:08:51;5.90;;;5.50;;
65552;SDS011;52465;51.560;14.368;2023-04-16T03:11:19;6.38;;;5.97;;
65552;SDS011;52465;51.560;14.368;2023-04-16T03:13:46;6.88;;;6.38;;
65552;SDS011;52465;51.560;14.368;2023-04-16T03:16:11;5.53;;;5.22;;
65552;SDS011;52465;51.560;14.368;2023-04-16T03:18:36;5.82;;;5.53;;
65552;SDS011;52465;51.560;14.368;2023-04-16T03:21:02;5.82;;;5.35;;
65552;SDS011;52465;51.560;14.368;2023-04-16T03:23:29;6.25;;;5.85;;
65552;SDS011;52465;51.560;14.368;2023-04-16T03:25:54;6.43;;;5.93;;
65552;SDS011;52465;51.560;14.368;2023-04-16T03:28:20;6.07;;;5.68;;
65552;SDS011;52465;51.560;14.368;2023-04-16T03:30:52;6.45;;;5.95;;
65552;SDS011;52465;51.560;14.368;2023-04-16T03:36:02;6.60;;;6.20;;
65552;SDS011;52465;51.560;14.368;2023-04-16T03:38:28;6.15;;;5.75;;
65552;SDS011;52465;51.560;14.368;2023-04-16T03:40:53;5.82;;;5.53;;
65552;SDS011;52465;51.560;14.368;2023-04-16T03:43:19;6.32;;;5.88;;
65552;SDS011;52465;51.560;14.368;2023-04-16T03:45:45;5.90;;;5.60;;
65552;SDS011;52465;51.560;14.368;2023-04-16T03:48:11;6.07;;;5.68;;
65552;SDS011;52465;51.560;14.368;2023-04-16T03:50:37;5.90;;;5.50;;
65552;SDS011;52465;51.560;14.368;2023-04-16T03:53:02;6.10;;;5.60;;
65552;SDS011;52465;51.560;14.368;2023-04-16T03:57:54;6.20;;;5.70;;
65552;SDS011;52465;51.560;14.368;2023-04-16T04:00:21;6.30;;;5.90;;
65552;SDS011;52465;51.560;14.368;2023-04-16T04:02:47;6.10;;;5.70;;
65552;SDS011;52465;51.560;14.368;2023-04-16T04:05:12;6.22;;;5.82;;
65552;SDS011;52465;51.560;14.368;2023-04-16T04:07:38;6.35;;;5.95;;
65552;SDS011;52465;51.560;14.368;2023-04-16T04:10:03;6.10;;;5.80;;
65552;SDS011;52465;51.560;14.368;2023-04-16T04:12:30;6.18;;;5.78;;
65552;SDS011;52465;51.560;14.368;2023-04-16T04:14:56;5.97;;;5.57;;
65552;SDS011;52465;51.560;14.368;2023-04-16T04:17:22;5.82;;;5.43;;
65552;SDS011;52465;51.560;14.368;2023-04-16T04:19:47;6.20;;;5.80;;
65552;SDS011;52465;51.560;14.368;2023-04-16T04:22:12;5.55;;;5.25;;
65552;SDS011;52465;51.560;14.368;2023-04-16T04:24:38;6.50;;;5.97;;
65552;SDS011;52465;51.560;14.368;2023-04-16T04:27:03;5.80;;;5.50;;
65552;SDS011;52465;51.560;14.368;2023-04-16T04:29:29;5.80;;;5.40;;
65552;SDS011;52465;51.560;14.368;2023-04-16T04:31:54;6.00;;;5.70;;
65552;SDS011;52465;51.560;14.368;2023-04-16T04:34:20;6.07;;;5.68;;
65552;SDS011;52465;51.560;14.368;2023-04-16T04:36:45;5.97;;;5.57;;
65552;SDS011;52465;51.560;14.368;2023-04-16T04:39:12;6.15;;;5.75;;
65552;SDS011;52465;51.560;14.368;2023-04-16T04:41:37;6.13;;;5.72;;
65552;SDS011;52465;51.560;14.368;2023-04-16T04:44:03;6.13;;;5.72;;
65552;SDS011;52465;51.560;14.368;2023-04-16T04:46:31;6.03;;;5.63;;
65552;SDS011;52465;51.560;14.368;2023-04-16T04:48:57;5.68;;;5.38;;
65552;SDS011;52465;51.560;14.368;2023-04-16T04:51:22;5.90;;;5.50;;
65552;SDS011;52465;51.560;14.368;2023-04-16T04:53:49;6.35;;;5.85;;
65552;SDS011;52465;51.560;14.368;2023-04-16T04:56:14;5.97;;;5.57;;
65552;SDS011;52465;51.560;14.368;2023-04-16T04:58:40;6.28;;;5.85;;
65552;SDS011;52465;51.560;14.368;2023-04-16T05:01:06;6.30;;;5.80;;
65552;SDS011;52465;51.560;14.368;2023-04-16T05:11:32;5.70;;;5.40;;
65552;SDS011;52465;51.560;14.368;2023-04-16T05:13:58;6.03;;;5.63;;
65552;SDS011;52465;51.560;14.368;2023-04-16T05:16:23;5.78;;;5.38;;
65552;SDS011;52465;51.560;14.368;2023-04-16T05:18:48;6.28;;;5.80;;
65552;SDS011;52465;51.560;14.368;2023-04-16T05:21:14;6.13;;;5.82;;
65552;SDS011;52465;51.560;14.368;2023-04-16T05:23:42;6.38;;;6.07;;
65552;SDS011;52465;51.560;14.368;2023-04-16T05:26:08;6.40;;;5.88;;
65552;SDS011;52465;51.560;14.368;2023-04-16T05:28:33;6.03;;;5.72;;
65552;SDS011;52465;51.560;14.368;2023-04-16T05:31:02;5.97;;;5.53;;
65552;SDS011;52465;51.560;14.368;2023-04-16T05:33:27;5.88;;;5.50;;
65552;SDS011;52465;51.560;14.368;2023-04-16T05:35:53;5.85;;;5.55;;
65552;SDS011;52465;51.560;14.368;2023-04-16T05:38:18;5.93;;;5.55;;
65552;SDS011;52465;51.560;14.368;2023-04-16T05:40:45;6.10;;;5.72;;
65552;SDS011;52465;51.560;14.368;2023-04-16T05:45:33;5.95;;;5.55;;
65552;SDS011;52465;51.560;14.368;2023-04-16T05:48:04;5.30;;;5.00;;
65552;SDS011;52465;51.560;14.368;2023-04-16T05:50:30;6.28;;;5.82;;
65552;SDS011;52465;51.560;14.368;2023-04-16T05:52:55;5.85;;;5.45;;
65552;SDS011;52465;51.560;14.368;2023-04-16T05:55:21;5.82;;;5.50;;
65552;SDS011;52465;51.560;14.368;2023-04-16T05:57:46;5.55;;;5.25;;
65552;SDS011;52465;51.560;14.368;2023-04-16T06:00:12;5.85;;;5.45;;
65552;SDS011;52465;51.560;14.368;2023-04-16T06:02:37;5.88;;;5.47;;
65552;SDS011;52465;51.560;14.368;2023-04-16T06:12:07;5.50;;;5.15;;
65552;SDS011;52465;51.560;14.368;2023-04-16T06:14:36;6.03;;;5.63;;
65552;SDS011;52465;51.560;14.368;2023-04-16T06:17:01;5.95;;;5.55;;
65552;SDS011;52465;51.560;14.368;2023-04-16T06:19:26;6.38;;;5.95;;
65552;SDS011;52465;51.560;14.368;2023-04-16T06:21:52;6.22;;;5.85;;
65552;SDS011;52465;51.560;14.368;2023-04-16T06:24:18;6.35;;;5.93;;
65552;SDS011;52465;51.560;14.368;2023-04-16T06:26:44;6.50;;;6.00;;
65552;SDS011;52465;51.560;14.368;2023-04-16T06:29:12;6.60;;;6.00;;
65552;SDS011;52465;51.560;14.368;2023-04-16T06:31:38;6.30;;;5.88;;
65552;SDS011;52465;51.560;14.368;2023-04-16T06:34:04;6.50;;;6.00;;
65552;SDS011;52465;51.560;14.368;2023-04-16T06:36:30;6.95;;;6.43;;
65552;SDS011;52465;51.560;14.368;2023-04-16T06:38:56;6.22;;;5.82;;
65552;SDS011;52465;51.560;14.368;2023-04-16T06:49:00;6.43;;;5.93;;
65552;SDS011;52465;51.560;14.368;2023-04-16T06:51:29;6.15;;;5.70;;
65552;SDS011;52465;51.560;14.368;2023-04-16T06:53:54;6.20;;;5.70;;
65552;SDS011;52465;51.560;14.368;2023-04-16T06:56:20;7.07;;;6.47;;
65552;SDS011;52465;51.560;14.368;2023-04-16T06:58:45;6.88;;;6.32;;
65552;SDS011;52465;51.560;14.368;2023-04-16T07:01:11;6.78;;;6.28;;
65552;SDS011;52465;51.560;14.368;2023-04-16T07:03:39;6.70;;;6.20;;
65552;SDS011;52465;51.560;14.368;2023-04-16T07:06:05;6.60;;;6.20;;
65552;SDS011;52465;51.560;14.368;2023-04-16T07:08:30;6.85;;;6.32;;
65552;SDS011;52465;51.560;14.368;2023-04-16T07:10:56;6.82;;;6.32;;
65552;SDS011;52465;51.560;14.368;2023-04-16T07:13:22;6.70;;;6.28;;
65552;SDS011;52465;51.560;14.368;2023-04-16T07:22:53;6.90;;;6.45;;
65552;SDS011;52465;51.560;14.368;2023-04-16T07:25:19;6.70;;;6.20;;
65552;SDS011;52465;51.560;14.368;2023-04-16T07:27:45;6.75;;;6.25;;
65552;SDS011;52465;51.560;14.368;2023-04-16T07:32:30;6.97;;;6.40;;
65552;SDS011;52465;51.560;14.368;2023-04-16T07:34:55;7.10;;;6.50;;
65552;SDS011;52465;51.560;14.368;2023-04-16T07:37:21;6.60;;;6.10;;
65552;SDS011;52465;51.560;14.368;2023-04-16T07:39:47;6.63;;;6.13;;
65552;SDS011;52465;51.560;14.368;2023-04-16T07:42:12;6.72;;;6.13;;
65552;SDS011;52465;51.560;14.368;2023-04-16T07:44:38;6.80;;;6.35;;
65552;SDS011;52465;51.560;14.368;2023-04-16T07:56:51;6.82;;;6.22;;
65552;SDS011;52465;51.560;14.368;2023-04-16T07:59:16;6.72;;;6.18;;
65552;SDS011;52465;51.560;14.368;2023-04-16T08:01:46;6.60;;;6.10;;
65552;SDS011;52465;51.560;14.368;2023-04-16T08:04:14;6.97;;;6.38;;
65552;SDS011;52465;51.560;14.368;2023-04-16T08:06:41;7.18;;;6.57;;
65552;SDS011;52465;51.560;14.368;2023-04-16T08:09:07;6.90;;;6.40;;
65552;SDS011;52465;51.560;14.368;2023-04-16T08:14:00;6.50;;;6.00;;
65552;SDS011;52465;51.560;14.368;2023-04-16T08:16:26;6.85;;;6.35;;
65552;SDS011;52465;51.560;14.368;2023-04-16T08:18:51;7.05;;;6.55;;
65552;SDS011;52465;51.560;14.368;2023-04-16T08:21:17;6.50;;;6.00;;
65552;SDS011;52465;51.560;14.368;2023-04-16T08:23:42;7.05;;;6.45;;
65552;SDS011;52465;51.560;14.368;2023-04-16T08:26:08;6.90;;;6.30;;
65552;SDS011;52465;51.560;14.368;2023-04-16T08:28:34;6.93;;;6.45;;
65552;SDS011;52465;51.560;14.368;2023-04-16T08:31:00;7.03;;;6.43;;
65552;SDS011;52465;51.560;14.368;2023-04-16T08:33:26;6.85;;;6.35;;
65552;SDS011;52465;51.560;14.368;2023-04-16T08:35:52;6.90;;;6.40;;
65552;SDS011;52465;51.560;14.368;2023-04-16T08:38:18;6.95;;;6.40;;
65552;SDS011;52465;51.560;14.368;2023-04-16T08:40:43;6.97;;;6.47;;
65552;SDS011;52465;51.560;14.368;2023-04-16T08:43:11;6.90;;;6.40;;
65552;SDS011;52465;51.560;14.368;2023-04-16T08:45:39;6.90;;;6.40;;
65552;SDS011;52465;51.560;14.368;2023-04-16T08:48:09;6.43;;;6.03;;
65552;SDS011;52465;51.560;14.368;2023-04-16T08:50:38;6.70;;;6.10;;
65552;SDS011;52465;51.560;14.368;2023-04-16T08:53:05;6.80;;;6.30;;
65552;SDS011;52465;51.560;14.368;2023-04-16T08:55:35;6.78;;;6.28;;
65552;SDS011;52465;51.560;14.368;2023-04-16T08:58:02;7.33;;;6.83;;
65552;SDS011;52465;51.560;14.368;2023-04-16T09:00:33;6.85;;;6.35;;
65552;SDS011;52465;51.560;14.368;2023-04-16T09:03:02;6.90;;;6.40;;
65552;SDS011;52465;51.560;14.368;2023-04-16T09:05:28;6.95;;;6.45;;
65552;SDS011;52465;51.560;14.368;2023-04-16T09:07:55;7.05;;;6.53;;
65552;SDS011;52465;51.560;14.368;2023-04-16T09:10:21;6.95;;;6.40;;
65552;SDS011;52465;51.560;14.368;2023-04-16T09:12:49;6.90;;;6.40;;
65552;SDS011;52465;51.560;14.368;2023-04-16T09:15:15;7.10;;;6.60;;
65552;SDS011;52465;51.560;14.368;2023-04-16T09:17:41;7.65;;;6.97;;
65552;SDS011;52465;51.560;14.368;2023-04-16T09:20:07;6.75;;;6.32;;
65552;SDS011;52465;51.560;14.368;2023-04-16T09:22:35;6.43;;;6.03;;
65552;SDS011;52465;51.560;14.368;2023-04-16T09:25:02;6.70;;;6.20;;
65552;SDS011;52465;51.560;14.368;2023-04-16T09:27:28;6.93;;;6.32;;
65552;SDS011;52465;51.560;14.368;2023-04-16T09:29:54;7.00;;;6.50;;
65552;SDS011;52465;51.560;14.368;2023-04-16T09:32:23;7.90;;;7.10;;
65552;SDS011;52465;51.560;14.368;2023-04-16T09:34:55;6.22;;;5.82;;
65552;SDS011;52465;51.560;14.368;2023-04-16T09:37:25;7.13;;;6.63;;
65552;SDS011;52465;51.560;14.368;2023-04-16T09:40:07;6.85;;;6.40;;
65552;SDS011;52465;51.560;14.368;2023-04-16T09:42:35;7.28;;;6.68;;
65552;SDS011;52465;51.560;14.368;2023-04-16T09:45:01;6.82;;;6.32;;
65552;SDS011;52465;51.560;14.368;2023-04-16T09:47:40;6.60;;;6.10;;
65552;SDS011;52465;51.560;14.368;2023-04-16T09:50:08;6.90;;;6.50;;
65552;SDS011;52465;51.560;14.368;2023-04-16T09:52:43;7.00;;;6.43;;
65552;SDS011;52465;51.560;14.368;2023-04-16T09:55:14;7.38;;;6.80;;
65552;SDS011;52465;51.560;14.368;2023-04-16T09:57:40;6.75;;;6.25;;
65552;SDS011;52465;51.560;14.368;2023-04-16T10:00:06;6.80;;;6.30;;
65552;SDS011;52465;51.560;14.368;2023-04-16T10:02:38;7.07;;;6.57;;
65552;SDS011;52465;51.560;14.368;2023-04-16T10:05:06;6.70;;;6.20;;
65552;SDS011;52465;51.560;14.368;2023-04-16T10:07:34;7.00;;;6.38;;
65552;SDS011;52465;51.560;14.368;2023-04-16T10:10:01;7.00;;;6.30;;
65552;SDS011;52465;51.560;14.368;2023-04-16T10:12:28;6.68;;;6.20;;
65552;SDS011;52465;51.560;14.368;2023-04-16T10:14:54;7.47;;;6.88;;
65552;SDS011;52465;51.560;14.368;2023-04-16T10:17:20;7.45;;;6.85;;
65552;SDS011;52465;51.560;14.368;2023-04-16T10:19:47;7.25;;;6.65;;
65552;SDS011;52465;51.560;14.368;2023-04-16T10:22:15;6.95;;;6.40;;
65552;SDS011;52465;51.560;14.368;2023-04-16T10:24:40;6.72;;;6.22;;
65552;SDS011;52465;51.560;14.368;2023-04-16T10:27:07;7.25;;;6.65;;
65552;SDS011;52465;51.560;14.368;2023-04-16T10:29:32;6.60;;;6.20;;
65552;SDS011;52465;51.560;14.368;2023-04-16T10:31:59;6.75;;;6.25;;
65552;SDS011;52465;51.560;14.368;2023-04-16T10:34:29;6.60;;;6.10;;
65552;SDS011;52465;51.560;14.368;2023-04-16T10:36:55;7.63;;;6.93;;
65552;SDS011;52465;51.560;14.368;2023-04-16T10:39:24;6.65;;;6.18;;
65552;SDS011;52465;51.560;14.368;2023-04-16T10:42:09;6.97;;;6.38;;
65552;SDS011;52465;51.560;14.368;2023-04-16T10:44:35;7.35;;;6.70;;
65552;SDS011;52465;51.560;14.368;2023-04-16T10:47:01;7.20;;;6.60;;
65552;SDS011;52465;51.560;14.368;2023-04-16T10:54:24;7.07;;;6.38;;
65552;SDS011;52465;51.560;14.368;2023-04-16T10:56:51;7.05;;;6.55;;
65552;SDS011;52465;51.560;14.368;2023-04-16T10:59:21;7.37;;;6.63;;
65552;SDS011;52465;51.560;14.368;2023-04-16T11:01:52;6.70;;;6.20;;
65552;SDS011;52465;51.560;14.368;2023-04-16T11:12:18;7.55;;;6.85;;
65552;SDS011;52465;51.560;14.368;2023-04-16T11:14:52;7.18;;;6.57;;
65552;SDS011;52465;51.560;14.368;2023-04-16T11:17:36;7.00;;;6.50;;
65552;SDS011;52465;51.560;14.368;2023-04-16T11:20:02;7.22;;;6.53;;
65552;SDS011;52465;51.560;14.368;2023-04-16T11:22:30;7.72;;;7.13;;
65552;SDS011;52465;51.560;14.368;2023-04-16T11:24:59;7.50;;;6.90;;
65552;SDS011;52465;51.560;14.368;2023-04-16T11:27:24;7.45;;;6.85;;
65552;SDS011;52465;51.560;14.368;2023-04-16T11:30:00;7.00;;;6.50;;
65552;SDS011;52465;51.560;14.368;2023-04-16T11:32:32;7.15;;;6.65;;
65552;SDS011;52465;51.560;14.368;2023-04-16T11:34:59;6.68;;;6.20;;
65552;SDS011;52465;51.560;14.368;2023-04-16T11:37:33;6.47;;;5.97;;
65552;SDS011;52465;51.560;14.368;2023-04-16T11:39:59;7.07;;;6.47;;
65552;SDS011;52465;51.560;14.368;2023-04-16T11:42:26;7.20;;;6.53;;
65552;SDS011;52465;51.560;14.368;2023-04-16T11:44:54;7.45;;;6.75;;
65552;SDS011;52465;51.560;14.368;2023-04-16T11:47:23;6.88;;;6.38;;
65552;SDS011;52465;51.560;14.368;2023-04-16T11:49:49;7.18;;;6.65;;
65552;SDS011;52465;51.560;14.368;2023-04-16T11:52:26;7.28;;;6.68;;
65552;SDS011;52465;51.560;14.368;2023-04-16T11:54:56;7.22;;;6.68;;
65552;SDS011;52465;51.560;14.368;2023-04-16T11:57:29;6.90;;;6.40;;
65552;SDS011;52465;51.560;14.368;2023-04-16T11:59:56;7.28;;;6.68;;
65552;SDS011;52465;51.560;14.368;2023-04-16T12:02:39;7.53;;;6.93;;
65552;SDS011;52465;51.560;14.368;2023-04-16T12:05:06;7.35;;;6.75;;
65552;SDS011;52465;51.560;14.368;2023-04-16T12:07:59;7.03;;;6.50;;
65552;SDS011;52465;51.560;14.368;2023-04-16T12:10:33;6.85;;;6.35;;
65552;SDS011;52465;51.560;14.368;2023-04-16T12:13:12;7.30;;;6.80;;
65552;SDS011;52465;51.560;14.368;2023-04-16T12:15:43;7.38;;;6.78;;
65552;SDS011;52465;51.560;14.368;2023-04-16T12:18:12;6.45;;;5.90;;
65552;SDS011;52465;51.560;14.368;2023-04-16T12:20:43;7.53;;;6.93;;
65552;SDS011;52465;51.560;14.368;2023-04-16T12:23:22;7.50;;;6.93;;
65552;SDS011;52465;51.560;14.368;2023-04-16T12:25:57;7.30;;;6.80;;
65552;SDS011;52465;51.560;14.368;2023-04-16T12:28:28;7.85;;;7.25;;
65552;SDS011;52465;51.560;14.368;2023-04-16T12:31:00;7.72;;;7.13;;
65552;SDS011;52465;51.560;14.368;2023-04-16T12:33:27;7.33;;;6.83;;
65552;SDS011;52465;51.560;14.368;2023-04-16T12:35:52;6.78;;;6.30;;
65552;SDS011;52465;51.560;14.368;2023-04-16T12:38:19;7.82;;;7.22;;
65552;SDS011;52465;51.560;14.368;2023-04-16T12:40:45;7.00;;;6.50;;
65552;SDS011;52465;51.560;14.368;2023-04-16T12:43:10;6.57;;;6.18;;
65552;SDS011;52465;51.560;14.368;2023-04-16T12:45:37;7.50;;;7.00;;
65552;SDS011;52465;51.560;14.368;2023-04-16T12:48:06;6.90;;;6.40;;
65552;SDS011;52465;51.560;14.368;2023-04-16T12:50:32;7.13;;;6.55;;
65552;SDS011;52465;51.560;14.368;2023-04-16T12:52:58;7.32;;;6.68;;
65552;SDS011;52465;51.560;14.368;2023-04-16T12:55:23;7.00;;;6.47;;
65552;SDS011;52465;51.560;14.368;2023-04-16T12:57:50;6.97;;;6.47;;
65552;SDS011;52465;51.560;14.368;2023-04-16T13:00:19;6.90;;;6.40;;
65552;SDS011;52465;51.560;14.368;2023-04-16T13:02:45;7.15;;;6.60;;
65552;SDS011;52465;51.560;14.368;2023-04-16T13:05:10;7.10;;;6.50;;
65552;SDS011;52465;51.560;14.368;2023-04-16T13:07:37;7.22;;;6.63;;
65552;SDS011;52465;51.560;14.368;2023-04-16T13:10:05;7.72;;;7.10;;
65552;SDS011;52465;51.560;14.368;2023-04-16T13:12:31;6.95;;;6.43;;
65552;SDS011;52465;51.560;14.368;2023-04-16T13:14:57;7.60;;;6.93;;
65552;SDS011;52465;51.560;14.368;2023-04-16T13:17:22;7.07;;;6.57;;
65552;SDS011;52465;51.560;14.368;2023-04-16T13:19:48;7.00;;;6.50;;
65552;SDS011;52465;51.560;14.368;2023-04-16T13:22:13;6.80;;;6.30;;
65552;SDS011;52465;51.560;14.368;2023-04-16T13:24:39;6.78;;;6.28;;
65552;SDS011;52465;51.560;14.368;2023-04-16T13:31:55;6.70;;;6.20;;
65552;SDS011;52465;51.560;14.368;2023-04-16T13:34:21;7.03;;;6.50;;
65552;SDS011;52465;51.560;14.368;2023-04-16T13:36:47;7.22;;;6.63;;
65552;SDS011;52465;51.560;14.368;2023-04-16T13:39:12;7.15;;;6.65;;
65552;SDS011;52465;51.560;14.368;2023-04-16T13:41:39;6.75;;;6.25;;
65552;SDS011;52465;51.560;14.368;2023-04-16T13:44:05;6.85;;;6.35;;
65552;SDS011;52465;51.560;14.368;2023-04-16T13:46:31;7.57;;;6.97;;
65552;SDS011;52465;51.560;14.368;2023-04-16T13:48:58;7.22;;;6.63;;
65552;SDS011;52465;51.560;14.368;2023-04-16T13:51:26;7.10;;;6.50;;
65552;SDS011;52465;51.560;14.368;2023-04-16T13:53:52;7.20;;;6.72;;
65552;SDS011;52465;51.560;14.368;2023-04-16T13:56:23;6.88;;;6.38;;
65552;SDS011;52465;51.560;14.368;2023-04-16T13:58:50;7.28;;;6.78;;
65552;SDS011;52465;51.560;14.368;2023-04-16T14:01:16;6.75;;;6.20;;
65552;SDS011;52465;51.560;14.368;2023-04-16T14:03:41;7.35;;;6.78;;
65552;SDS011;52465;51.560;14.368;2023-04-16T14:06:07;7.18;;;6.60;;
65552;SDS011;52465;51.560;14.368;2023-04-16T14:08:32;7.35;;;6.75;;
65552;SDS011;52465;51.560;14.368;2023-04-16T14:10:58;7.25;;;6.75;;
65552;SDS011;52465;51.560;14.368;2023-04-16T14:13:24;7.05;;;6.45;;
65552;SDS011;52465;51.560;14.368;2023-04-16T14:15:52;6.82;;;6.22;;
65552;SDS011;52465;51.560;14.368;2023-04-16T14:18:18;6.68;;;6.18;;
65552;SDS011;52465;51.560;14.368;2023-04-16T14:20:44;7.05;;;6.55;;
65552;SDS011;52465;51.560;14.368;2023-04-16T14:23:10;7.57;;;7.00;;
65552;SDS011;52465;51.560;14.368;2023-04-16T14:25:36;7.03;;;6.53;;
65552;SDS011;52465;51.560;14.368;2023-04-16T14:28:02;6.50;;;6.00;;
65552;SDS011;52465;51.560;14.368;2023-04-16T14:30:27;6.75;;;6.25;;
65552;SDS011;52465;51.560;14.368;2023-04-16T14:32:53;7.10;;;6.53;;
65552;SDS011;52465;51.560;14.368;2023-04-16T14:35:18;6.63;;;6.13;;
65552;SDS011;52465;51.560;14.368;2023-04-16T14:37:44;6.63;;;6.13;;
65552;SDS011;52465;51.560;14.368;2023-04-16T14:40:10;7.22;;;6.63;;
65552;SDS011;52465;51.560;14.368;2023-04-16T14:42:36;6.82;;;6.32;;
65552;SDS011;52465;51.560;14.368;2023-04-16T14:45:05;7.05;;;6.55;;
65552;SDS011;52465;51.560;14.368;2023-04-16T14:47:32;6.70;;;6.25;;
65552;SDS011;52465;51.560;14.368;2023-04-16T14:49:58;6.70;;;6.20;;
65552;SDS011;52465;51.560;14.368;2023-04-16T14:52:27;6.88;;;6.38;;
65552;SDS011;52465;51.560;14.368;2023-04-16T14:54:54;7.07;;;6.57;;
65552;SDS011;52465;51.560;14.368;2023-04-16T14:57:20;6.55;;;6.05;;
65552;SDS011;52465;51.560;14.368;2023-04-16T14:59:49;7.10;;;6.50;;
65552;SDS011;52465;51.560;14.368;2023-04-16T15:02:26;6.90;;;6.40;;
65552;SDS011;52465;51.560;14.368;2023-04-16T15:04:52;6.95;;;6.45;;
65552;SDS011;52465;51.560;14.368;2023-04-16T15:07:18;6.63;;;6.13;;
65552;SDS011;52465;51.560;14.368;2023-04-16T15:12:11;6.82;;;6.32;;
65552;SDS011;52465;51.560;14.368;2023-04-16T15:14:37;7.03;;;6.43;;
65552;SDS011;52465;51.560;14.368;2023-04-16T15:17:05;7.13;;;6.53;;
65552;SDS011;52465;51.560;14.368;2023-04-16T15:19:31;6.50;;;6.00;;
65552;SDS011;52465;51.560;14.368;2023-04-16T15:21:57;6.88;;;6.47;;
65552;SDS011;52465;51.560;14.368;2023-04-16T15:24:23;6.18;;;5.78;;
65552;SDS011;52465;51.560;14.368;2023-04-16T15:26:51;6.78;;;6.38;;
65552;SDS011;52465;51.560;14.368;2023-04-16T15:29:17;6.55;;;6.10;;
65552;SDS011;52465;51.560;14.368;2023-04-16T15:31:42;6.43;;;6.03;;
65552;SDS011;52465;51.560;14.368;2023-04-16T15:34:07;7.05;;;6.53;;
65552;SDS011;52465;51.560;14.368;2023-04-16T15:36:33;7.03;;;6.40;;
65552;SDS011;52465;51.560;14.368;2023-04-16T15:39:01;6.85;;;6.35;;
65552;SDS011;52465;51.560;14.368;2023-04-16T15:41:27;6.53;;;6.03;;
65552;SDS011;52465;51.560;14.368;2023-04-16T15:43:57;6.88;;;6.38;;
65552;SDS011;52465;51.560;14.368;2023-04-16T15:46:22;6.60;;;6.10;;
65552;SDS011;52465;51.560;14.368;2023-04-16T15:48:50;6.60;;;6.20;;
65552;SDS011;52465;51.560;14.368;2023-04-16T15:51:18;6.63;;;6.13;;
65552;SDS011;52465;51.560;14.368;2023-04-16T15:53:43;6.68;;;6.18;;
65552;SDS011;52465;51.560;14.368;2023-04-16T15:56:09;6.53;;;6.07;;
65552;SDS011;52465;51.560;14.368;2023-04-16T15:58:36;6.45;;;6.00;;
65552;SDS011;52465;51.560;14.368;2023-04-16T16:01:03;7.03;;;6.47;;
65552;SDS011;52465;51.560;14.368;2023-04-16T16:03:29;6.60;;;6.13;;
65552;SDS011;52465;51.560;14.368;2023-04-16T16:06:00;6.80;;;6.30;;
65552;SDS011;52465;51.560;14.368;2023-04-16T16:08:31;6.65;;;6.15;;
65552;SDS011;52465;51.560;14.368;2023-04-16T16:11:02;6.38;;;5.97;;
65552;SDS011;52465;51.560;14.368;2023-04-16T16:13:28;6.47;;;6.05;;
65552;SDS011;52465;51.560;14.368;2023-04-16T16:15:53;6.97;;;6.50;;